Time;durP1;ratioP1;P1;durP2;ratioP2;P2;SDS_P1;SDS_P2;PMS_P1;PMS_P2;Temp;Humidity;BMP_temperature;BMP_pressure;BME280_temperature;BME280_humidity;BME280_pressure;Samples;Min_cycle;Max_cycle;Signal;HPM_P1;HPM_P2
2020/12/25 05:00:37;;;;;;;1999.90;999.90;;;5.20;99.90;;;;;;5848856;23;20219;-77
2020/12/25 05:03:06;;;;;;;1999.90;999.90;;;5.10;99.90;;;;;;4995435;28;20207;-77
2020/12/25 05:05:33;;;;;;;1999.90;999.90;;;5.00;99.90;;;;;;4995062;28;20326;-78
2020/12/25 05:08:01;;;;;;;1999.90;999.90;;;5.00;99.90;;;;;;4995076;28;20274;-77
2020/12/25 05:10:28;;;;;;;1999.90;999.90;;;5.00;99.90;;;;;;4994988;28;20286;-77
2020/12/25 05:12:55;;;;;;;1999.90;999.90;;;4.90;99.90;;;;;;4995058;28;20278;-77
2020/12/25 05:15:22;;;;;;;1999.90;999.90;;;4.90;99.90;;;;;;4993861;28;20220;-76
2020/12/25 05:17:56;;;;;;;1999.90;999.90;;;4.90;99.90;;;;;;4993376;28;20203;-76
2020/12/25 05:20:22;;;;;;;1999.90;999.90;;;4.90;99.90;;;;;;4993665;28;20219;-76
2020/12/25 05:22:49;;;;;;;1999.90;999.90;;;4.90;99.90;;;;;;4993569;28;20207;-76
2020/12/25 05:25:19;;;;;;;1999.90;999.90;;;4.80;99.90;;;;;;4993531;28;20677;-76
2020/12/25 05:27:46;;;;;;;1999.90;999.90;;;4.80;99.90;;;;;;4993409;28;20579;-76
2020/12/25 05:30:13;;;;;;;1999.90;999.90;;;4.70;99.90;;;;;;4994139;28;20207;-76
2020/12/25 05:32:43;;;;;;;1999.90;999.90;;;4.80;99.90;;;;;;4994060;28;20204;-77
2020/12/25 05:35:14;;;;;;;1999.90;999.90;;;4.70;99.90;;;;;;4993964;28;20596;-76
2020/12/25 05:37:41;;;;;;;1999.90;999.90;;;4.80;99.90;;;;;;4993503;28;20274;-76
2020/12/25 05:40:09;;;;;;;1999.90;999.90;;;4.70;99.90;;;;;;4993395;28;20208;-76
2020/12/25 05:42:45;;;;;;;1999.90;999.90;;;3.50;99.90;;;;;;4993314;28;20668;-77
2020/12/25 05:45:16;;;;;;;1999.90;999.90;;;4.80;99.90;;;;;;4993543;28;20188;-76
2020/12/25 05:47:45;;;;;;;1999.90;999.90;;;4.80;99.90;;;;;;4993079;28;20234;-77
2020/12/25 05:50:18;;;;;;;1999.90;999.90;;;4.90;99.90;;;;;;4993064;28;20665;-76
2020/12/25 05:52:46;;;;;;;1999.90;999.90;;;4.80;99.90;;;;;;4992961;28;20211;-76
2020/12/25 05:55:17;;;;;;;1999.90;999.90;;;4.90;99.90;;;;;;4993304;28;20220;-77
2020/12/25 05:57:50;;;;;;;1999.90;999.90;;;5.10;99.90;;;;;;4993534;28;20339;-77
2020/12/25 06:00:17;;;;;;;1999.90;999.90;;;4.90;99.90;;;;;;4993115;28;20630;-77
2020/12/25 06:02:45;;;;;;;1999.90;999.90;;;5.00;99.90;;;;;;4993204;28;20623;-76
2020/12/25 06:05:14;;;;;;;1999.90;999.90;;;5.00;99.90;;;;;;4987664;28;20205;-75
2020/12/25 06:07:48;;;;;;;1999.90;999.90;;;5.00;99.90;;;;;;4973523;28;20200;-76
2020/12/25 06:10:17;;;;;;;1999.90;999.90;;;5.00;99.90;;;;;;4973474;28;20259;-75
2020/12/25 06:12:44;;;;;;;1999.90;999.90;;;4.80;99.90;;;;;;4973304;28;20256;-75
2020/12/25 06:15:13;;;;;;;1999.90;999.90;;;4.90;99.90;;;;;;4973601;28;20231;-74
2020/12/25 06:17:44;;;;;;;1999.90;999.90;;;4.90;99.90;;;;;;4973005;28;20220;-75
2020/12/25 06:20:16;;;;;;;1999.90;999.90;;;4.80;99.90;;;;;;4973964;28;20208;-77
2020/12/25 06:22:45;;;;;;;1999.90;999.90;;;4.70;99.90;;;;;;4973413;28;20204;-76
2020/12/25 06:25:14;;;;;;;1999.90;999.90;;;4.60;99.90;;;;;;4974104;28;20268;-75
2020/12/25 06:27:48;;;;;;;1999.90;999.90;;;4.60;99.90;;;;;;4973385;28;20255;-77
2020/12/25 06:30:24;;;;;;;1999.90;999.90;;;5.00;99.90;;;;;;4974846;28;20204;-77
2020/12/25 06:32:52;;;;;;;1999.90;999.90;;;4.60;99.90;;;;;;4974164;28;20203;-75
2020/12/25 06:35:32;;;;;;;1999.90;999.90;;;4.70;99.90;;;;;;4973196;28;20228;-76
2020/12/25 06:38:04;;;;;;;1999.90;999.90;;;4.80;99.90;;;;;;4973132;28;20205;-75
2020/12/25 06:40:32;;;;;;;1999.90;999.90;;;4.80;99.90;;;;;;4973277;28;20279;-75
2020/12/25 06:42:59;;;;;;;1999.90;999.90;;;4.80;99.90;;;;;;4974922;28;20201;-77
2020/12/25 06:45:31;;;;;;;1999.90;999.90;;;4.70;99.90;;;;;;4973586;28;20666;-76
2020/12/25 06:48:15;;;;;;;1999.90;999.90;;;4.70;99.90;;;;;;4972933;28;20204;-76
2020/12/25 06:50:52;;;;;;;1999.90;999.90;;;4.80;99.90;;;;;;4972850;28;20709;-77
2020/12/25 06:53:35;;;;;;;1999.90;999.90;;;4.70;99.90;;;;;;4973424;28;20262;-76
2020/12/25 06:56:14;;;;;;;1999.90;999.90;;;4.80;99.90;;;;;;4973051;28;20224;-76
2020/12/25 06:58:43;;;;;;;1999.90;999.90;;;4.80;99.90;;;;;;4972589;28;20673;-76
2020/12/25 07:01:11;;;;;;;1999.90;999.90;;;4.80;99.90;;;;;;4972770;28;20236;-77
2020/12/25 07:03:38;;;;;;;1999.90;999.90;;;4.70;99.90;;;;;;4971738;28;20348;-77
2020/12/25 07:06:10;;;;;;;1999.90;999.90;;;4.50;99.90;;;;;;4988388;28;20192;-79
2020/12/25 07:08:49;;;;;;;1999.90;999.90;;;4.80;99.90;;;;;;4992937;28;20199;-77
2020/12/25 07:11:17;;;;;;;1999.90;999.90;;;4.50;99.90;;;;;;4992351;28;20231;-77
2020/12/25 07:13:44;;;;;;;1999.90;999.90;;;4.60;99.90;;;;;;4993133;28;20204;-76
2020/12/25 07:16:12;;;;;;;1999.90;999.90;;;4.30;99.90;;;;;;4993058;28;20228;-76
2020/12/25 07:18:39;;;;;;;1999.90;999.90;;;4.30;99.90;;;;;;4991810;28;20661;-77
2020/12/25 07:21:08;;;;;;;1999.90;999.90;;;4.20;99.90;;;;;;4992015;28;20233;-77
2020/12/25 07:23:42;;;;;;;1999.90;999.90;;;4.40;99.90;;;;;;4992195;28;20210;-77
2020/12/25 07:26:12;;;;;;;1999.90;999.90;;;4.40;99.90;;;;;;4993589;28;20246;-78
2020/12/25 07:28:41;;;;;;;1999.90;999.90;;;4.30;99.90;;;;;;4992002;28;20193;-77
2020/12/25 07:31:09;;;;;;;1999.90;999.90;;;4.10;99.90;;;;;;4992517;28;20230;-76
2020/12/25 07:33:36;;;;;;;1999.90;999.90;;;4.50;99.90;;;;;;4989986;28;20196;-76
2020/12/25 07:36:12;;;;;;;1999.90;999.90;;;4.10;99.90;;;;;;4992971;28;20275;-80
2020/12/25 07:38:39;;;;;;;1999.90;999.90;;;4.20;99.90;;;;;;4994083;28;20234;-80
2020/12/25 07:41:06;;;;;;;1999.90;999.90;;;4.10;99.90;;;;;;4998933;28;20287;-79
2020/12/25 07:43:33;;;;;;;1999.90;999.90;;;4.30;99.90;;;;;;4999098;28;20199;-81
2020/12/25 07:46:00;;;;;;;1999.90;999.90;;;4.20;99.90;;;;;;4998692;28;20463;-79
2020/12/25 07:48:27;;;;;;;1999.90;999.90;;;4.30;99.90;;;;;;4999238;28;20211;-79
2020/12/25 07:50:55;;;;;;;1999.90;999.90;;;4.30;99.90;;;;;;4998678;28;20224;-79
2020/12/25 07:53:22;;;;;;;1999.90;999.90;;;4.30;99.90;;;;;;4997481;28;20200;-82
2020/12/25 07:55:49;;;;;;;1999.90;999.90;;;4.30;99.90;;;;;;4998113;28;20278;-81
2020/12/25 07:58:18;;;;;;;1999.90;999.90;;;4.40;99.90;;;;;;4996617;28;20239;-79
2020/12/25 08:00:45;;;;;;;1999.90;999.90;;;4.40;99.90;;;;;;4998599;28;20232;-78
2020/12/25 08:03:13;;;;;;;1999.90;999.90;;;4.30;99.90;;;;;;4998392;28;20212;-79
2020/12/25 08:05:40;;;;;;;1999.90;999.90;;;4.30;99.90;;;;;;4999463;28;20196;-79
2020/12/25 08:08:08;;;;;;;1999.90;999.90;;;4.40;99.90;;;;;;5005546;28;20230;-79
2020/12/25 08:10:37;;;;;;;1999.90;999.90;;;4.20;99.90;;;;;;5011989;28;20219;-79
2020/12/25 08:13:06;;;;;;;1999.90;999.90;;;4.20;99.90;;;;;;5019641;28;20208;-82
2020/12/25 08:15:34;;;;;;;1999.90;999.90;;;4.10;99.90;;;;;;5017597;28;20222;-77
2020/12/25 08:18:04;;;;;;;1999.90;999.90;;;4.20;99.90;;;;;;5011005;28;20242;-78
2020/12/25 08:20:32;;;;;;;1999.90;999.90;;;4.30;99.90;;;;;;5018443;28;20227;-78
2020/12/25 08:23:00;;;;;;;1999.90;999.90;;;4.10;99.90;;;;;;5018523;28;20199;-78
2020/12/25 08:25:28;;;;;;;1999.90;999.90;;;4.00;99.90;;;;;;5017844;28;20614;-77
2020/12/25 08:27:56;;;;;;;1999.90;999.90;;;4.30;99.90;;;;;;5015404;28;20667;-78
2020/12/25 08:30:24;;;;;;;1999.90;999.90;;;4.20;99.90;;;;;;5014363;28;20243;-76
2020/12/25 08:32:56;;;;;;;1999.90;999.90;;;4.20;99.90;;;;;;5013677;28;20697;-77
2020/12/25 08:35:25;;;;;;;1999.90;999.90;;;4.30;99.90;;;;;;5014998;28;20223;-78
2020/12/25 08:37:57;;;;;;;1999.90;999.90;;;4.20;99.90;;;;;;5015467;28;20203;-80
2020/12/25 08:40:24;;;;;;;1999.90;999.90;;;4.20;99.90;;;;;;5015200;28;20207;-77
2020/12/25 08:42:51;;;;;;;1999.90;999.90;;;4.30;99.90;;;;;;5015967;28;20203;-77
2020/12/25 08:45:21;;;;;;;1999.90;999.90;;;4.30;99.90;;;;;;4999405;28;20200;-78
2020/12/25 08:48:11;;;;;;;1999.90;999.90;;;4.20;99.90;;;;;;4995589;28;20192;-78
2020/12/25 08:50:40;;;;;;;1999.90;999.90;;;4.40;99.90;;;;;;4992214;28;20216;-76
2020/12/25 08:53:15;;;;;;;1999.90;999.90;;;4.40;99.90;;;;;;4994586;28;20246;-77
2020/12/25 08:55:43;;;;;;;1999.90;999.90;;;4.40;99.90;;;;;;4992426;28;20212;-77
2020/12/25 08:58:11;;;;;;;1999.90;999.90;;;4.30;99.90;;;;;;4993609;28;20586;-77
2020/12/25 09:00:39;;;;;;;1999.90;999.90;;;4.40;99.90;;;;;;4994733;28;20298;-77
2020/12/25 09:03:06;;;;;;;1999.90;999.90;;;4.30;99.90;;;;;;4993778;28;20258;-77
2020/12/25 09:05:32;;;;;;;1999.90;999.90;;;4.20;99.90;;;;;;4993716;28;20200;-76
2020/12/25 09:08:00;;;;;;;1999.90;999.90;;;4.20;99.90;;;;;;4993507;28;20577;-76
2020/12/25 09:10:28;;;;;;;1999.90;999.90;;;4.50;99.90;;;;;;4993172;28;20207;-76
2020/12/25 09:12:55;;;;;;;1999.90;999.90;;;4.30;99.90;;;;;;4993723;28;20204;-76
2020/12/25 09:15:21;;;;;;;1999.90;999.90;;;4.20;99.90;;;;;;4993532;28;20224;-76
2020/12/25 09:17:49;;;;;;;1999.90;999.90;;;4.20;99.90;;;;;;4993290;28;20286;-76
2020/12/25 09:20:16;;;;;;;1999.90;999.90;;;4.20;99.90;;;;;;4994235;28;20208;-76
2020/12/25 09:22:43;;;;;;;1999.90;999.90;;;4.20;99.90;;;;;;4993407;28;20199;-76
2020/12/25 09:25:10;;;;;;;1999.90;999.90;;;4.20;99.90;;;;;;4993393;28;20215;-76
2020/12/25 09:27:36;;;;;;;1999.90;999.90;;;4.20;99.90;;;;;;4993880;28;20305;-75
2020/12/25 09:30:04;;;;;;;1999.90;999.90;;;4.50;99.90;;;;;;4995082;28;20291;-78
2020/12/25 09:32:30;;;;;;;1999.90;999.90;;;4.00;99.90;;;;;;4994667;28;20599;-78
2020/12/25 09:34:58;;;;;;;1999.90;999.90;;;4.00;99.90;;;;;;4997944;28;20639;-78
2020/12/25 09:37:25;;;;;;;1999.90;999.90;;;4.10;99.90;;;;;;4994430;28;20219;-77
2020/12/25 09:39:52;;;;;;;1999.90;999.90;;;4.30;99.90;;;;;;4993563;28;20270;-78
2020/12/25 09:42:19;;;;;;;1999.90;999.90;;;4.30;99.90;;;;;;4993287;28;20219;-76
2020/12/25 09:44:46;;;;;;;1999.90;999.90;;;4.40;99.90;;;;;;4992557;28;20661;-75
2020/12/25 09:47:12;;;;;;;1999.90;999.90;;;4.30;99.90;;;;;;4992445;28;20251;-75
2020/12/25 09:49:40;;;;;;;1999.90;999.90;;;4.20;99.90;;;;;;4992255;28;20204;-75
2020/12/25 09:52:07;;;;;;;1999.90;999.90;;;4.10;99.90;;;;;;4992688;28;20275;-76
2020/12/25 09:54:34;;;;;;;1999.90;999.90;;;4.20;99.90;;;;;;5000000;28;20544;-78
2020/12/25 09:57:02;;;;;;;1999.90;999.90;;;4.20;99.90;;;;;;5012586;28;20211;-78
2020/12/25 09:59:29;;;;;;;1999.90;999.90;;;4.10;99.90;;;;;;5012416;28;20199;-78
2020/12/25 10:01:55;;;;;;;1999.90;999.90;;;4.00;99.90;;;;;;5018361;28;20310;-77
2020/12/25 10:04:22;;;;;;;1999.90;999.90;;;4.30;99.90;;;;;;5011682;28;20254;-77
2020/12/25 10:06:49;;;;;;;1999.90;999.90;;;4.00;99.90;;;;;;5012589;28;20634;-78
2020/12/25 10:09:17;;;;;;;1999.90;999.90;;;4.30;99.90;;;;;;5022066;28;20234;-78
2020/12/25 10:11:44;;;;;;;1999.90;999.90;;;4.10;99.90;;;;;;5016346;28;20227;-79
2020/12/25 10:14:11;;;;;;;1999.90;999.90;;;4.30;99.90;;;;;;5004596;28;20207;-78
2020/12/25 10:16:38;;;;;;;1999.90;999.90;;;4.20;99.90;;;;;;4999847;28;20220;-77
2020/12/25 10:19:05;;;;;;;1999.90;999.90;;;4.60;99.90;;;;;;5002729;28;20196;-78
2020/12/25 10:21:32;;;;;;;1999.90;999.90;;;4.30;99.90;;;;;;4997130;28;20231;-77
2020/12/25 10:23:59;;;;;;;1999.90;999.90;;;4.30;99.90;;;;;;4997031;28;20200;-78
2020/12/25 10:26:26;;;;;;;1999.90;999.90;;;4.40;99.90;;;;;;4996147;28;20191;-80
2020/12/25 10:28:53;;;;;;;1999.90;999.90;;;4.50;99.90;;;;;;4993703;28;20204;-80
2020/12/25 10:31:20;;;;;;;1999.90;999.90;;;4.50;99.90;;;;;;4995482;28;20220;-80
2020/12/25 10:33:47;;;;;;;1999.90;999.90;;;4.40;99.90;;;;;;4994565;28;20204;-78
2020/12/25 10:36:14;;;;;;;1999.90;999.90;;;4.40;99.90;;;;;;4992873;28;20253;-81
2020/12/25 10:38:40;;;;;;;1999.90;999.90;;;4.30;99.90;;;;;;4994570;28;20211;-76
2020/12/25 10:41:09;;;;;;;1999.90;999.90;;;4.30;99.90;;;;;;4993794;28;20235;-82
2020/12/25 10:43:36;;;;;;;1999.90;999.90;;;4.10;99.90;;;;;;4993372;28;20200;-77
2020/12/25 10:46:03;;;;;;;1999.90;999.90;;;4.50;99.90;;;;;;4993100;28;20266;-77
2020/12/25 10:48:31;;;;;;;1999.90;999.90;;;4.00;99.90;;;;;;4993187;28;20267;-78
2020/12/25 10:50:58;;;;;;;1999.90;999.90;;;4.10;99.90;;;;;;4993491;28;20228;-78
2020/12/25 10:53:25;;;;;;;1999.90;999.90;;;3.90;99.90;;;;;;4993159;28;20208;-77
2020/12/25 10:55:51;;;;;;;1999.90;999.90;;;3.70;99.90;;;;;;4992864;28;20274;-77
2020/12/25 10:58:18;;;;;;;1999.90;999.90;;;3.40;99.90;;;;;;4991152;28;20227;-78
2020/12/25 11:00:47;;;;;;;1999.90;999.90;;;3.90;99.90;;;;;;4993526;28;20236;-77
2020/12/25 11:03:14;;;;;;;1999.90;999.90;;;3.90;99.90;;;;;;4993452;28;20200;-78
2020/12/25 11:05:41;;;;;;;1999.90;999.90;;;3.90;99.90;;;;;;4993208;28;20204;-79
2020/12/25 11:08:09;;;;;;;1999.90;999.90;;;3.80;99.90;;;;;;4992296;28;20263;-77
2020/12/25 11:10:47;;;;;;;1999.90;999.90;;;3.90;99.90;;;;;;4992343;28;20651;-75
2020/12/25 11:13:14;;;;;;;1999.90;999.90;;;4.00;99.90;;;;;;4993956;28;20251;-78
2020/12/25 11:15:41;;;;;;;1999.90;999.90;;;3.90;99.90;;;;;;4996953;28;20223;-78
2020/12/25 11:18:09;;;;;;;1999.90;999.90;;;3.90;99.90;;;;;;4997281;28;20193;-79
2020/12/25 11:20:36;;;;;;;1999.90;999.90;;;3.90;99.90;;;;;;4996643;28;20242;-78
2020/12/25 11:23:03;;;;;;;1999.90;999.90;;;4.00;99.90;;;;;;4996756;28;20203;-79
2020/12/25 11:25:29;;;;;;;1999.90;999.90;;;4.10;99.90;;;;;;4996411;28;20196;-80
2020/12/25 11:27:56;;;;;;;1999.90;999.90;;;3.80;99.90;;;;;;4995706;28;20255;-80
2020/12/25 11:30:23;;;;;;;1999.90;999.90;;;3.90;99.90;;;;;;4996729;28;20661;-79
2020/12/25 11:32:50;;;;;;;1999.90;999.90;;;4.00;99.90;;;;;;4996398;28;20596;-82
2020/12/25 11:35:18;;;;;;;1999.90;999.90;;;4.10;99.90;;;;;;4997253;28;20216;-80
2020/12/25 11:37:44;;;;;;;1999.90;999.90;;;4.20;99.90;;;;;;4995963;28;20727;-79
2020/12/25 11:40:11;;;;;;;1999.90;999.90;;;4.40;99.90;;;;;;4998488;28;20200;-80
2020/12/25 11:42:38;;;;;;;1999.90;999.90;;;4.20;99.90;;;;;;4995707;28;20546;-78
2020/12/25 11:45:05;;;;;;;1999.90;999.90;;;4.00;99.90;;;;;;4985846;28;20209;-78
2020/12/25 11:47:35;;;;;;;1999.90;999.90;;;4.10;99.90;;;;;;4996885;28;20211;-77
2020/12/25 11:50:06;;;;;;;1999.90;999.90;;;4.10;99.90;;;;;;4996604;28;20204;-77
2020/12/25 11:52:35;;;;;;;1999.90;999.90;;;4.10;99.90;;;;;;5001377;28;20215;-77
2020/12/25 11:55:03;;;;;;;1999.90;999.90;;;4.20;99.90;;;;;;5002100;28;20712;-78
2020/12/25 11:57:30;;;;;;;1999.90;999.90;;;4.20;99.90;;;;;;5000782;28;20211;-79
2020/12/25 11:59:57;;;;;;;1999.90;999.90;;;4.20;99.90;;;;;;5002238;28;20275;-78
2020/12/25 12:02:25;;;;;;;1999.90;999.90;;;4.20;99.90;;;;;;5003885;28;20734;-78
2020/12/25 12:04:52;;;;;;;1999.90;999.90;;;4.10;99.90;;;;;;4998827;28;20217;-78
2020/12/25 12:07:20;;;;;;;1999.90;999.90;;;4.10;99.90;;;;;;4997833;28;20196;-78
2020/12/25 12:09:50;;;;;;;1999.90;999.90;;;4.00;99.90;;;;;;4999348;28;20204;-79
2020/12/25 12:12:17;;;;;;;1999.90;999.90;;;4.40;99.90;;;;;;5001629;28;20220;-80
2020/12/25 12:14:44;;;;;;;1999.90;999.90;;;4.20;99.90;;;;;;5005723;28;20204;-80
2020/12/25 12:17:12;;;;;;;1999.90;999.90;;;4.40;99.90;;;;;;5004453;28;20199;-79
2020/12/25 12:19:39;;;;;;;1999.90;999.90;;;4.20;99.90;;;;;;4995794;28;20238;-80
2020/12/25 12:22:06;;;;;;;1999.90;999.90;;;4.20;99.90;;;;;;5003501;28;20240;-79
2020/12/25 12:24:33;;;;;;;1999.90;999.90;;;4.40;99.90;;;;;;4998618;28;20196;-79
2020/12/25 12:27:01;;;;;;;1999.90;999.90;;;4.20;99.90;;;;;;4999437;28;20196;-78
2020/12/25 12:29:29;;;;;;;1999.90;999.90;;;4.30;99.90;;;;;;4997167;28;20200;-78
2020/12/25 12:31:56;;;;;;;1999.90;999.90;;;4.30;99.90;;;;;;4998104;28;20224;-77
2020/12/25 12:34:22;;;;;;;1999.90;999.90;;;4.40;99.90;;;;;;4997530;28;20252;-78
2020/12/25 12:36:49;;;;;;;1999.90;999.90;;;4.40;99.90;;;;;;4995001;28;20216;-78
2020/12/25 12:39:17;;;;;;;1999.90;999.90;;;4.50;99.90;;;;;;4994575;28;20197;-77
2020/12/25 12:41:46;;;;;;;1999.90;999.90;;;4.70;99.90;;;;;;4993699;28;20274;-77
2020/12/25 12:44:14;;;;;;;1999.90;999.90;;;4.40;99.90;;;;;;4993507;28;20231;-78
2020/12/25 12:46:41;;;;;;;1999.90;999.90;;;4.30;99.90;;;;;;4992723;28;20196;-78
2020/12/25 12:49:08;;;;;;;1999.90;999.90;;;4.50;99.90;;;;;;4995300;28;20247;-78
2020/12/25 12:51:35;;;;;;;1999.90;999.90;;;4.30;99.90;;;;;;4994312;28;20227;-77
2020/12/25 12:54:01;;;;;;;1999.90;999.90;;;4.30;99.90;;;;;;4995913;28;20268;-78
2020/12/25 12:56:28;;;;;;;1999.90;999.90;;;4.20;99.90;;;;;;4997116;28;20271;-78
2020/12/25 12:58:55;;;;;;;1999.90;999.90;;;4.30;99.90;;;;;;4993313;28;20208;-80
2020/12/25 13:01:23;;;;;;;1999.90;999.90;;;4.20;99.90;;;;;;5000763;28;20687;-79
2020/12/25 13:03:50;;;;;;;1999.90;999.90;;;4.00;99.90;;;;;;5001512;28;20203;-79
2020/12/25 13:06:17;;;;;;;1999.90;999.90;;;4.10;99.90;;;;;;5001450;28;20196;-81
2020/12/25 13:08:43;;;;;;;1999.90;999.90;;;4.10;99.90;;;;;;5001235;28;20196;-79
2020/12/25 13:11:11;;;;;;;1999.90;999.90;;;4.00;99.90;;;;;;5001952;28;20243;-79
2020/12/25 13:13:37;;;;;;;1999.90;999.90;;;4.00;99.90;;;;;;5001968;28;20262;-80
2020/12/25 13:16:09;;;;;;;1999.90;999.90;;;4.00;99.90;;;;;;5000871;28;20227;-79
2020/12/25 13:18:36;;;;;;;1999.90;999.90;;;4.00;99.90;;;;;;5002607;28;20200;-79
2020/12/25 13:21:03;;;;;;;1999.90;999.90;;;4.00;99.90;;;;;;4999991;28;20216;-78
2020/12/25 13:23:30;;;;;;;1999.90;999.90;;;4.10;99.90;;;;;;4999455;28;20661;-79
2020/12/25 13:25:57;;;;;;;1999.90;999.90;;;4.20;99.90;;;;;;5000913;28;20228;-80
2020/12/25 13:28:24;;;;;;;1999.90;999.90;;;4.10;99.90;;;;;;5001752;28;20219;-78
2020/12/25 13:30:51;;;;;;;1999.90;999.90;;;4.10;99.90;;;;;;4999930;28;20224;-77
2020/12/25 13:33:18;;;;;;;1999.90;999.90;;;4.10;99.90;;;;;;5000113;28;20215;-79
2020/12/25 13:35:45;;;;;;;1999.90;999.90;;;4.00;99.90;;;;;;4999351;28;20228;-79
2020/12/25 13:38:12;;;;;;;1999.90;999.90;;;4.00;99.90;;;;;;4999115;28;20283;-80
2020/12/25 13:40:39;;;;;;;1999.90;999.90;;;4.10;99.90;;;;;;4998579;28;20275;-79
2020/12/25 13:43:06;;;;;;;1999.90;999.90;;;4.00;99.90;;;;;;4999405;28;20739;-79
2020/12/25 13:45:33;;;;;;;1999.90;999.90;;;4.30;99.90;;;;;;4999021;28;20203;-78
2020/12/25 13:47:59;;;;;;;1999.90;999.90;;;4.00;99.90;;;;;;4999123;28;20200;-80
2020/12/25 13:50:26;;;;;;;1999.90;999.90;;;4.10;99.90;;;;;;5003935;28;20207;-80
2020/12/25 13:52:54;;;;;;;1999.90;999.90;;;4.30;99.90;;;;;;5001063;28;20200;-78
2020/12/25 13:55:21;;;;;;;1999.90;999.90;;;4.60;99.90;;;;;;4996807;28;20216;-78
2020/12/25 13:57:50;;;;;;;1999.90;999.90;;;4.30;99.90;;;;;;4996465;28;20907;-78
2020/12/25 14:00:17;;;;;;;1999.90;999.90;;;4.40;99.90;;;;;;4995009;28;20211;-79
2020/12/25 14:02:44;;;;;;;1999.90;999.90;;;4.40;99.90;;;;;;4996831;28;20686;-78
2020/12/25 14:05:11;;;;;;;1999.90;999.90;;;4.50;99.90;;;;;;4997378;28;20211;-79
2020/12/25 14:07:38;;;;;;;1999.90;999.90;;;4.70;99.90;;;;;;4998979;28;20208;-78
2020/12/25 14:10:06;;;;;;;1999.90;999.90;;;4.40;99.90;;;;;;4996420;28;20639;-78
2020/12/25 14:12:48;;;;;;;1999.90;999.90;;;4.50;99.90;;;;;;4996115;28;20208;-78
2020/12/25 14:15:15;;;;;;;1999.90;999.90;;;4.50;99.90;;;;;;4994356;28;20701;-78
2020/12/25 14:17:42;;;;;;;1999.90;999.90;;;4.40;99.90;;;;;;4993766;28;20212;-78
2020/12/25 14:20:10;;;;;;;1999.90;999.90;;;4.70;99.90;;;;;;4994216;28;20672;-78
2020/12/25 14:22:37;;;;;;;1999.90;999.90;;;4.60;99.90;;;;;;4993791;28;20200;-78
2020/12/25 14:25:05;;;;;;;1999.90;999.90;;;4.80;99.90;;;;;;4995023;28;20204;-79
2020/12/25 14:27:33;;;;;;;1999.90;999.90;;;4.50;99.90;;;;;;4995738;28;20262;-79
2020/12/25 14:30:00;;;;;;;1999.90;999.90;;;4.40;99.90;;;;;;4994806;28;20200;-79
2020/12/25 14:32:27;;;;;;;1999.90;999.90;;;4.70;99.90;;;;;;4992934;28;20227;-77
2020/12/25 14:34:54;;;;;;;1999.90;999.90;;;4.40;99.90;;;;;;4993996;28;20205;-77
2020/12/25 14:37:21;;;;;;;1999.90;999.90;;;4.40;99.90;;;;;;4992287;28;20231;-77
2020/12/25 14:39:49;;;;;;;1999.90;999.90;;;4.50;99.90;;;;;;4992167;28;20208;-77
2020/12/25 14:42:16;;;;;;;1999.90;999.90;;;4.50;99.90;;;;;;4993038;28;20297;-78
2020/12/25 14:44:43;;;;;;;1999.90;999.90;;;4.50;99.90;;;;;;4990361;28;20739;-77
2020/12/25 14:47:10;;;;;;;1999.90;999.90;;;4.80;99.90;;;;;;4994970;28;20204;-78
2020/12/25 14:49:37;;;;;;;1999.90;999.90;;;4.60;99.90;;;;;;4996796;28;20203;-77
2020/12/25 14:52:04;;;;;;;1999.90;999.90;;;4.40;99.90;;;;;;4988332;28;20269;-78
2020/12/25 14:54:31;;;;;;;1999.90;999.90;;;4.30;99.90;;;;;;4996744;28;20568;-78
2020/12/25 14:57:01;;;;;;;1999.90;999.90;;;3.80;99.90;;;;;;5000094;28;20247;-78
2020/12/25 14:59:29;;;;;;;1999.90;999.90;;;3.20;99.90;;;;;;4997721;28;20282;-78
2020/12/25 15:01:56;;;;;;;1999.90;999.90;;;3.10;99.90;;;;;;4998061;28;20247;-78
2020/12/25 15:04:23;;;;;;;1999.90;999.90;;;3.40;99.90;;;;;;4998023;28;20676;-78
2020/12/25 15:06:50;;;;;;;1999.90;999.90;;;3.30;99.90;;;;;;4998243;28;20235;-78
2020/12/25 15:09:17;;;;;;;1999.90;999.90;;;;;;;;;;4998913;28;20665;-78
2020/12/25 15:11:44;;;;;;;1999.90;999.90;;;3.00;99.90;;;;;;4998371;28;20228;-77
2020/12/25 15:14:11;;;;;;;1999.90;999.90;;;3.10;99.90;;;;;;4998227;28;20200;-77
2020/12/25 15:16:39;;;;;;;1999.90;999.90;;;3.30;99.90;;;;;;4996293;28;20729;-77
2020/12/25 15:19:05;;;;;;;1999.90;999.90;;;3.20;99.90;;;;;;4995574;28;20251;-77
2020/12/25 15:21:32;;;;;;;1999.90;999.90;;;3.10;99.90;;;;;;4995738;28;20296;-76
2020/12/25 15:23:59;;;;;;;1999.90;999.90;;;3.30;99.90;;;;;;4998008;28;20254;-80
2020/12/25 15:26:26;;;;;;;1999.90;999.90;;;3.10;99.90;;;;;;4997702;28;20549;-79
2020/12/25 15:28:53;;;;;;;1999.90;999.90;;;3.20;99.90;;;;;;4993712;28;20254;-79
2020/12/25 15:31:20;;;;;;;1999.90;999.90;;;3.40;99.90;;;;;;4996662;28;20221;-79
2020/12/25 15:33:47;;;;;;;1999.90;999.90;;;3.30;99.90;;;;;;4996729;28;20681;-79
2020/12/25 15:36:16;;;;;;;1999.90;999.90;;;3.40;99.90;;;;;;5001831;28;20223;-79
2020/12/25 15:38:43;;;;;;;1999.90;999.90;;;3.50;99.90;;;;;;5000551;28;20673;-80
2020/12/25 15:41:11;;;;;;;1999.90;999.90;;;3.70;99.90;;;;;;4995597;28;20223;-77
2020/12/25 15:43:45;;;;;;;1999.90;999.90;;;3.60;99.90;;;;;;4996112;28;20199;-77
2020/12/25 15:46:12;;;;;;;1999.90;999.90;;;3.70;99.90;;;;;;5001572;28;20204;-79
2020/12/25 15:48:39;;;;;;;1999.90;999.90;;;3.90;99.90;;;;;;5001744;28;20208;-78
2020/12/25 15:51:10;;;;;;;1999.90;999.90;;;3.70;99.90;;;;;;5000406;28;20212;-79
2020/12/25 15:53:37;;;;;;;1999.90;999.90;;;3.70;99.90;;;;;;5001363;28;20200;-79
2020/12/25 15:56:04;;;;;;;1999.90;999.90;;;3.80;99.90;;;;;;5003222;28;20212;-79
2020/12/25 15:58:39;;;;;;;1999.90;999.90;;;3.60;99.90;;;;;;5003179;28;20200;-78
2020/12/25 16:01:08;;;;;;;1999.90;999.90;;;3.60;99.90;;;;;;4997990;28;20295;-80
2020/12/25 16:03:38;;;;;;;1999.90;999.90;;;3.50;99.90;;;;;;5002539;28;20203;-80
2020/12/25 16:06:05;;;;;;;1999.90;999.90;;;3.70;99.90;;;;;;5002804;28;20600;-80
2020/12/25 16:08:33;;;;;;;1999.90;999.90;;;3.70;99.90;;;;;;4999980;28;20211;-79
2020/12/25 16:11:00;;;;;;;1999.90;999.90;;;4.00;99.90;;;;;;5000822;28;20689;-78
2020/12/25 16:13:29;;;;;;;1999.90;999.90;;;3.80;99.90;;;;;;4997118;28;20192;-80
2020/12/25 16:15:56;;;;;;;1999.90;999.90;;;3.70;99.90;;;;;;5000767;28;20262;-79
2020/12/25 16:18:23;;;;;;;1999.90;999.90;;;;;;;;;;4999943;28;20200;-80
2020/12/25 16:20:50;;;;;;;1999.90;999.90;;;3.60;99.90;;;;;;4999228;28;20219;-76
2020/12/25 16:23:17;;;;;;;1999.90;999.90;;;3.70;99.90;;;;;;4997866;28;20200;-80
2020/12/25 16:25:45;;;;;;;1999.90;999.90;;;3.70;99.90;;;;;;4997695;28;20611;-78
2020/12/25 16:28:12;;;;;;;1999.90;999.90;;;3.90;99.90;;;;;;4996719;28;20208;-79
2020/12/25 16:30:39;;;;;;;1999.90;999.90;;;;;;;;;;4997229;28;20635;-79
2020/12/25 16:33:06;;;;;;;1999.90;999.90;;;;;;;;;;4997207;28;20227;-79
2020/12/25 16:35:34;;;;;;;1999.90;999.90;;;;;;;;;;4997066;28;20200;-81
2020/12/25 16:38:01;;;;;;;1999.90;999.90;;;3.80;99.90;;;;;;4997729;28;20255;-80
2020/12/25 16:40:28;;;;;;;1999.90;999.90;;;3.90;99.90;;;;;;4999027;28;20193;-80
2020/12/25 16:42:57;;;;;;;1999.90;999.90;;;4.00;99.90;;;;;;4996785;28;20196;-78
2020/12/25 16:45:24;;;;;;;1999.90;999.90;;;3.90;99.90;;;;;;4996529;28;20535;-80
2020/12/25 16:47:51;;;;;;;1999.90;999.90;;;3.80;99.90;;;;;;4996424;28;20188;-81
2020/12/25 16:50:18;;;;;;;1999.90;999.90;;;3.70;99.90;;;;;;4996122;28;20215;-78
2020/12/25 16:52:45;;;;;;;1999.90;999.90;;;3.70;99.90;;;;;;4994885;28;20247;-79
2020/12/25 16:55:12;;;;;;;1999.90;999.90;;;3.60;99.90;;;;;;4994704;28;20294;-77
2020/12/25 16:57:39;;;;;;;1999.90;999.90;;;3.70;99.90;;;;;;4993918;28;20263;-73
2020/12/25 17:00:07;;;;;;;1999.90;999.90;;;3.70;99.90;;;;;;4993586;28;20254;-78
2020/12/25 17:02:34;;;;;;;1999.90;999.90;;;3.70;99.90;;;;;;4994174;28;20240;-77
2020/12/25 17:05:01;;;;;;;1999.90;999.90;;;3.80;99.90;;;;;;4994529;28;20227;-78
2020/12/25 17:07:28;;;;;;;1999.90;999.90;;;3.80;99.90;;;;;;4995516;28;20232;-78
2020/12/25 17:09:55;;;;;;;1999.90;999.90;;;;;;;;;;4995615;28;20235;-77
2020/12/25 17:12:22;;;;;;;1999.90;999.90;;;3.70;99.90;;;;;;4995155;28;20228;-81
2020/12/25 17:14:49;;;;;;;1999.90;999.90;;;;;;;;;;4998094;28;20637;-80